Sharpsburg, Pennsylvania
Current Conditions -  °F | °C
As of 12:53 PM on Tuesday 21 Oct 2014 (Local Time) from KAGC Reporting Station
Overcast Overcast  
Wind Chill: 53°   Ceiling: 7000
Heat Index: 53°   Visibility: 10mi
Dew Point: 42°   Wind: 13mph
Humidity: 66%   Direction: 320°NW
Pressure: 29.88"   Gusts: 20mph
Location:  40.5049°N, 79.9132°W
Report Text: KAGC 211653Z 32011G17KT 10SM SCT021 OVC070 12/06 A2988 RMK AO2 SLP123 T01170056
Loading
Personal Weather Stations






























Interactive Weather Map
Tropical Storm Tracking
New forecast layout! Learn more

10-Day Weather Forecast

Advertisements
Track Severe Weather on mobile